sensor_id;sensor_type;location;lat;lon;timestamp;P1;durP1;ratioP1;P2;durP2;ratioP2
71475;SDS011;59286;59.274;17.974;2024-03-29T00:00:38;159.60;;;48.28;;
71475;SDS011;59286;59.274;17.974;2024-03-29T00:03:04;133.25;;;43.97;;
71475;SDS011;59286;59.274;17.974;2024-03-29T00:05:30;114.20;;;43.58;;
71475;SDS011;59286;59.274;17.974;2024-03-29T00:07:55;137.50;;;46.17;;
71475;SDS011;59286;59.274;17.974;2024-03-29T00:10:21;177.55;;;54.15;;
71475;SDS011;59286;59.274;17.974;2024-03-29T00:12:46;163.02;;;48.25;;
71475;SDS011;59286;59.274;17.974;2024-03-29T00:15:11;154.88;;;51.22;;
71475;SDS011;59286;59.274;17.974;2024-03-29T00:17:37;221.43;;;61.90;;
71475;SDS011;59286;59.274;17.974;2024-03-29T00:20:02;122.63;;;44.05;;
71475;SDS011;59286;59.274;17.974;2024-03-29T00:22:29;161.23;;;50.45;;
71475;SDS011;59286;59.274;17.974;2024-03-29T00:24:54;164.48;;;48.50;;
71475;SDS011;59286;59.274;17.974;2024-03-29T00:27:20;175.07;;;53.10;;
71475;SDS011;59286;59.274;17.974;2024-03-29T00:29:47;177.95;;;53.05;;
71475;SDS011;59286;59.274;17.974;2024-03-29T00:32:13;221.80;;;58.92;;
71475;SDS011;59286;59.274;17.974;2024-03-29T00:34:39;194.07;;;54.53;;
71475;SDS011;59286;59.274;17.974;2024-03-29T00:37:04;260.48;;;60.30;;
71475;SDS011;59286;59.274;17.974;2024-03-29T00:39:29;283.90;;;60.97;;
71475;SDS011;59286;59.274;17.974;2024-03-29T00:41:55;186.80;;;50.67;;
71475;SDS011;59286;59.274;17.974;2024-03-29T00:44:21;246.20;;;60.92;;
71475;SDS011;59286;59.274;17.974;2024-03-29T00:46:46;190.18;;;52.75;;
71475;SDS011;59286;59.274;17.974;2024-03-29T00:49:11;117.30;;;41.78;;
71475;SDS011;59286;59.274;17.974;2024-03-29T00:51:36;321.88;;;67.72;;
71475;SDS011;59286;59.274;17.974;2024-03-29T00:54:02;120.32;;;41.88;;
71475;SDS011;59286;59.274;17.974;2024-03-29T00:56:27;133.38;;;45.08;;
71475;SDS011;59286;59.274;17.974;2024-03-29T00:58:52;147.00;;;48.28;;
71475;SDS011;59286;59.274;17.974;2024-03-29T01:01:18;126.90;;;44.42;;
71475;SDS011;59286;59.274;17.974;2024-03-29T01:03:43;225.45;;;58.42;;
71475;SDS011;59286;59.274;17.974;2024-03-29T01:06:08;132.30;;;42.20;;
71475;SDS011;59286;59.274;17.974;2024-03-29T01:08:34;146.88;;;47.55;;
71475;SDS011;59286;59.274;17.974;2024-03-29T01:10:59;139.52;;;45.65;;
71475;SDS011;59286;59.274;17.974;2024-03-29T01:13:24;152.52;;;47.50;;
71475;SDS011;59286;59.274;17.974;2024-03-29T01:15:49;142.75;;;45.42;;
71475;SDS011;59286;59.274;17.974;2024-03-29T01:18:15;133.27;;;43.65;;
71475;SDS011;59286;59.274;17.974;2024-03-29T01:20:40;121.15;;;41.67;;
71475;SDS011;59286;59.274;17.974;2024-03-29T01:23:05;82.03;;;34.65;;
71475;SDS011;59286;59.274;17.974;2024-03-29T01:25:31;186.68;;;53.85;;
71475;SDS011;59286;59.274;17.974;2024-03-29T01:27:56;158.63;;;45.15;;
71475;SDS011;59286;59.274;17.974;2024-03-29T01:30:21;146.18;;;47.20;;
71475;SDS011;59286;59.274;17.974;2024-03-29T01:32:47;276.02;;;64.75;;
71475;SDS011;59286;59.274;17.974;2024-03-29T01:35:12;159.68;;;46.10;;
71475;SDS011;59286;59.274;17.974;2024-03-29T01:37:38;112.53;;;42.33;;
71475;SDS011;59286;59.274;17.974;2024-03-29T01:40:04;80.60;;;35.97;;
71475;SDS011;59286;59.274;17.974;2024-03-29T01:42:30;160.23;;;43.53;;
71475;SDS011;59286;59.274;17.974;2024-03-29T01:44:55;85.53;;;36.47;;
71475;SDS011;59286;59.274;17.974;2024-03-29T01:47:21;96.78;;;38.00;;
71475;SDS011;59286;59.274;17.974;2024-03-29T01:49:46;166.05;;;49.05;;
71475;SDS011;59286;59.274;17.974;2024-03-29T01:52:12;117.03;;;38.03;;
71475;SDS011;59286;59.274;17.974;2024-03-29T01:54:40;106.38;;;37.65;;
71475;SDS011;59286;59.274;17.974;2024-03-29T01:57:06;164.10;;;46.58;;
71475;SDS011;59286;59.274;17.974;2024-03-29T01:59:32;115.28;;;42.10;;
71475;SDS011;59286;59.274;17.974;2024-03-29T02:01:58;139.27;;;45.00;;
71475;SDS011;59286;59.274;17.974;2024-03-29T02:04:24;149.15;;;44.20;;
71475;SDS011;59286;59.274;17.974;2024-03-29T02:06:51;128.88;;;45.45;;
71475;SDS011;59286;59.274;17.974;2024-03-29T02:09:16;133.85;;;43.97;;
71475;SDS011;59286;59.274;17.974;2024-03-29T02:11:42;118.57;;;42.65;;
71475;SDS011;59286;59.274;17.974;2024-03-29T02:14:07;206.88;;;51.55;;
71475;SDS011;59286;59.274;17.974;2024-03-29T02:16:32;254.75;;;57.88;;
71475;SDS011;59286;59.274;17.974;2024-03-29T02:18:58;120.53;;;39.83;;
71475;SDS011;59286;59.274;17.974;2024-03-29T02:21:23;160.98;;;45.85;;
71475;SDS011;59286;59.274;17.974;2024-03-29T02:23:54;159.00;;;47.92;;
71475;SDS011;59286;59.274;17.974;2024-03-29T02:26:24;137.82;;;42.83;;
71475;SDS011;59286;59.274;17.974;2024-03-29T02:28:53;203.13;;;50.08;;
71475;SDS011;59286;59.274;17.974;2024-03-29T02:31:19;81.93;;;35.42;;
71475;SDS011;59286;59.274;17.974;2024-03-29T02:33:44;150.45;;;46.15;;
71475;SDS011;59286;59.274;17.974;2024-03-29T02:36:09;105.20;;;39.05;;
71475;SDS011;59286;59.274;17.974;2024-03-29T02:38:36;90.45;;;35.13;;
71475;SDS011;59286;59.274;17.974;2024-03-29T02:41:01;124.85;;;40.63;;
71475;SDS011;59286;59.274;17.974;2024-03-29T02:43:26;105.43;;;37.42;;
71475;SDS011;59286;59.274;17.974;2024-03-29T02:45:52;108.15;;;37.95;;
71475;SDS011;59286;59.274;17.974;2024-03-29T02:48:17;133.20;;;40.67;;
71475;SDS011;59286;59.274;17.974;2024-03-29T02:50:42;83.47;;;33.88;;
71475;SDS011;59286;59.274;17.974;2024-03-29T02:53:08;156.23;;;44.47;;
71475;SDS011;59286;59.274;17.974;2024-03-29T02:55:33;78.88;;;32.92;;
71475;SDS011;59286;59.274;17.974;2024-03-29T02:57:58;91.78;;;34.40;;
71475;SDS011;59286;59.274;17.974;2024-03-29T03:00:24;74.43;;;32.15;;
71475;SDS011;59286;59.274;17.974;2024-03-29T03:02:49;83.20;;;33.88;;
71475;SDS011;59286;59.274;17.974;2024-03-29T03:05:14;81.45;;;32.38;;
71475;SDS011;59286;59.274;17.974;2024-03-29T03:07:40;80.63;;;33.15;;
71475;SDS011;59286;59.274;17.974;2024-03-29T03:10:24;81.55;;;34.33;;
71475;SDS011;59286;59.274;17.974;2024-03-29T03:13:08;78.43;;;32.85;;
71475;SDS011;59286;59.274;17.974;2024-03-29T03:15:33;82.72;;;34.08;;
71475;SDS011;59286;59.274;17.974;2024-03-29T03:17:58;83.53;;;34.25;;
71475;SDS011;59286;59.274;17.974;2024-03-29T03:20:23;83.95;;;34.38;;
71475;SDS011;59286;59.274;17.974;2024-03-29T03:22:53;79.28;;;34.03;;
71475;SDS011;59286;59.274;17.974;2024-03-29T03:25:18;72.43;;;31.08;;
71475;SDS011;59286;59.274;17.974;2024-03-29T03:27:43;81.55;;;33.58;;
71475;SDS011;59286;59.274;17.974;2024-03-29T03:30:09;102.65;;;38.17;;
71475;SDS011;59286;59.274;17.974;2024-03-29T03:32:35;85.82;;;33.33;;
71475;SDS011;59286;59.274;17.974;2024-03-29T03:35:00;93.60;;;36.10;;
71475;SDS011;59286;59.274;17.974;2024-03-29T03:37:25;101.72;;;36.55;;
71475;SDS011;59286;59.274;17.974;2024-03-29T03:39:51;97.68;;;36.00;;
71475;SDS011;59286;59.274;17.974;2024-03-29T03:42:16;93.80;;;34.20;;
71475;SDS011;59286;59.274;17.974;2024-03-29T03:44:41;85.75;;;32.85;;
71475;SDS011;59286;59.274;17.974;2024-03-29T03:47:07;107.00;;;37.92;;
71475;SDS011;59286;59.274;17.974;2024-03-29T03:49:32;81.97;;;33.25;;
71475;SDS011;59286;59.274;17.974;2024-03-29T03:51:57;82.68;;;34.08;;
71475;SDS011;59286;59.274;17.974;2024-03-29T03:54:22;98.85;;;36.67;;
71475;SDS011;59286;59.274;17.974;2024-03-29T03:56:48;95.05;;;35.58;;
71475;SDS011;59286;59.274;17.974;2024-03-29T03:59:14;107.65;;;39.13;;
71475;SDS011;59286;59.274;17.974;2024-03-29T04:01:39;102.82;;;38.13;;
71475;SDS011;59286;59.274;17.974;2024-03-29T04:04:05;85.22;;;35.40;;
71475;SDS011;59286;59.274;17.974;2024-03-29T04:06:30;86.07;;;35.65;;
71475;SDS011;59286;59.274;17.974;2024-03-29T04:08:55;81.35;;;33.30;;
71475;SDS011;59286;59.274;17.974;2024-03-29T04:11:21;68.32;;;31.40;;
71475;SDS011;59286;59.274;17.974;2024-03-29T04:13:46;84.70;;;34.10;;
71475;SDS011;59286;59.274;17.974;2024-03-29T04:16:11;77.60;;;33.83;;
71475;SDS011;59286;59.274;17.974;2024-03-29T04:18:37;85.20;;;36.63;;
71475;SDS011;59286;59.274;17.974;2024-03-29T04:21:02;72.60;;;33.35;;
71475;SDS011;59286;59.274;17.974;2024-03-29T04:23:28;85.05;;;35.30;;
71475;SDS011;59286;59.274;17.974;2024-03-29T04:25:54;97.03;;;37.83;;
71475;SDS011;59286;59.274;17.974;2024-03-29T04:28:21;95.88;;;37.08;;
71475;SDS011;59286;59.274;17.974;2024-03-29T04:30:53;81.75;;;35.10;;
71475;SDS011;59286;59.274;17.974;2024-03-29T04:33:19;74.35;;;33.33;;
71475;SDS011;59286;59.274;17.974;2024-03-29T04:35:55;81.22;;;35.13;;
71475;SDS011;59286;59.274;17.974;2024-03-29T04:38:21;97.70;;;38.05;;
71475;SDS011;59286;59.274;17.974;2024-03-29T04:40:47;81.07;;;34.17;;
71475;SDS011;59286;59.274;17.974;2024-03-29T04:43:13;91.75;;;36.05;;
71475;SDS011;59286;59.274;17.974;2024-03-29T04:45:38;88.93;;;36.30;;
71475;SDS011;59286;59.274;17.974;2024-03-29T04:48:03;82.53;;;34.60;;
71475;SDS011;59286;59.274;17.974;2024-03-29T04:50:29;84.35;;;34.88;;
71475;SDS011;59286;59.274;17.974;2024-03-29T04:52:55;83.22;;;34.92;;
71475;SDS011;59286;59.274;17.974;2024-03-29T04:55:20;90.13;;;36.35;;
71475;SDS011;59286;59.274;17.974;2024-03-29T04:57:45;90.35;;;37.28;;
71475;SDS011;59286;59.274;17.974;2024-03-29T05:00:11;103.43;;;38.38;;
71475;SDS011;59286;59.274;17.974;2024-03-29T05:02:36;91.13;;;37.40;;
71475;SDS011;59286;59.274;17.974;2024-03-29T05:05:02;90.50;;;37.38;;
71475;SDS011;59286;59.274;17.974;2024-03-29T05:07:28;87.70;;;35.33;;
71475;SDS011;59286;59.274;17.974;2024-03-29T05:09:53;83.20;;;36.40;;
71475;SDS011;59286;59.274;17.974;2024-03-29T05:12:19;93.05;;;37.10;;
71475;SDS011;59286;59.274;17.974;2024-03-29T05:14:44;75.43;;;33.80;;
71475;SDS011;59286;59.274;17.974;2024-03-29T05:17:09;82.93;;;36.95;;
71475;SDS011;59286;59.274;17.974;2024-03-29T05:19:35;70.57;;;33.08;;
71475;SDS011;59286;59.274;17.974;2024-03-29T05:22:00;72.75;;;34.38;;
71475;SDS011;59286;59.274;17.974;2024-03-29T05:24:25;83.45;;;35.47;;
71475;SDS011;59286;59.274;17.974;2024-03-29T05:26:51;84.78;;;36.10;;
71475;SDS011;59286;59.274;17.974;2024-03-29T05:29:16;77.70;;;35.08;;
71475;SDS011;59286;59.274;17.974;2024-03-29T05:31:42;77.70;;;35.40;;
71475;SDS011;59286;59.274;17.974;2024-03-29T05:34:08;74.57;;;34.72;;
71475;SDS011;59286;59.274;17.974;2024-03-29T05:36:33;95.63;;;38.72;;
71475;SDS011;59286;59.274;17.974;2024-03-29T05:38:58;93.28;;;39.47;;
71475;SDS011;59286;59.274;17.974;2024-03-29T05:41:23;89.68;;;38.75;;
71475;SDS011;59286;59.274;17.974;2024-03-29T05:43:49;84.35;;;37.28;;
71475;SDS011;59286;59.274;17.974;2024-03-29T05:46:15;86.55;;;38.17;;
71475;SDS011;59286;59.274;17.974;2024-03-29T05:48:42;85.88;;;37.58;;
71475;SDS011;59286;59.274;17.974;2024-03-29T05:51:07;87.05;;;39.60;;
71475;SDS011;59286;59.274;17.974;2024-03-29T05:53:33;76.55;;;35.78;;
71475;SDS011;59286;59.274;17.974;2024-03-29T05:55:58;93.22;;;39.20;;
71475;SDS011;59286;59.274;17.974;2024-03-29T05:58:23;88.72;;;38.90;;
71475;SDS011;59286;59.274;17.974;2024-03-29T06:00:49;81.55;;;34.55;;
71475;SDS011;59286;59.274;17.974;2024-03-29T06:03:14;91.28;;;39.08;;
71475;SDS011;59286;59.274;17.974;2024-03-29T06:05:40;76.63;;;35.85;;
71475;SDS011;59286;59.274;17.974;2024-03-29T06:08:06;74.07;;;35.35;;
71475;SDS011;59286;59.274;17.974;2024-03-29T06:10:32;68.53;;;32.83;;
71475;SDS011;59286;59.274;17.974;2024-03-29T06:12:57;75.35;;;34.72;;
71475;SDS011;59286;59.274;17.974;2024-03-29T06:15:31;90.50;;;37.50;;
71475;SDS011;59286;59.274;17.974;2024-03-29T06:18:15;79.00;;;34.42;;
71475;SDS011;59286;59.274;17.974;2024-03-29T06:20:41;70.50;;;33.30;;
71475;SDS011;59286;59.274;17.974;2024-03-29T06:23:06;74.65;;;34.00;;
71475;SDS011;59286;59.274;17.974;2024-03-29T06:25:32;67.68;;;31.13;;
71475;SDS011;59286;59.274;17.974;2024-03-29T06:27:57;57.38;;;30.17;;
71475;SDS011;59286;59.274;17.974;2024-03-29T06:30:22;64.85;;;30.63;;
71475;SDS011;59286;59.274;17.974;2024-03-29T06:32:48;73.38;;;32.92;;
71475;SDS011;59286;59.274;17.974;2024-03-29T06:35:13;59.53;;;28.13;;
71475;SDS011;59286;59.274;17.974;2024-03-29T06:37:39;71.13;;;32.58;;
71475;SDS011;59286;59.274;17.974;2024-03-29T06:40:05;52.45;;;28.92;;
71475;SDS011;59286;59.274;17.974;2024-03-29T06:42:32;54.47;;;27.73;;
71475;SDS011;59286;59.274;17.974;2024-03-29T06:44:58;62.15;;;29.15;;
71475;SDS011;59286;59.274;17.974;2024-03-29T06:47:24;53.00;;;28.33;;
71475;SDS011;59286;59.274;17.974;2024-03-29T06:49:50;50.95;;;28.13;;
71475;SDS011;59286;59.274;17.974;2024-03-29T06:52:15;47.55;;;26.90;;
71475;SDS011;59286;59.274;17.974;2024-03-29T06:54:40;50.85;;;26.95;;
71475;SDS011;59286;59.274;17.974;2024-03-29T06:57:06;53.53;;;27.00;;
71475;SDS011;59286;59.274;17.974;2024-03-29T06:59:31;63.17;;;30.50;;
71475;SDS011;59286;59.274;17.974;2024-03-29T07:01:56;40.45;;;23.80;;
71475;SDS011;59286;59.274;17.974;2024-03-29T07:04:24;45.35;;;23.77;;
71475;SDS011;59286;59.274;17.974;2024-03-29T07:06:52;40.60;;;23.17;;
71475;SDS011;59286;59.274;17.974;2024-03-29T07:09:18;35.33;;;21.25;;
71475;SDS011;59286;59.274;17.974;2024-03-29T07:11:45;30.63;;;19.38;;
71475;SDS011;59286;59.274;17.974;2024-03-29T07:14:11;29.48;;;19.20;;
71475;SDS011;59286;59.274;17.974;2024-03-29T07:16:37;25.05;;;16.42;;
71475;SDS011;59286;59.274;17.974;2024-03-29T07:19:02;23.55;;;14.80;;
71475;SDS011;59286;59.274;17.974;2024-03-29T07:21:28;20.40;;;13.98;;
71475;SDS011;59286;59.274;17.974;2024-03-29T07:23:53;23.73;;;14.25;;
71475;SDS011;59286;59.274;17.974;2024-03-29T07:26:18;19.30;;;13.32;;
71475;SDS011;59286;59.274;17.974;2024-03-29T07:28:44;20.25;;;13.63;;
71475;SDS011;59286;59.274;17.974;2024-03-29T07:31:09;19.15;;;13.68;;
71475;SDS011;59286;59.274;17.974;2024-03-29T07:33:35;20.52;;;13.55;;
71475;SDS011;59286;59.274;17.974;2024-03-29T07:36:01;17.30;;;12.55;;
71475;SDS011;59286;59.274;17.974;2024-03-29T07:38:28;20.20;;;12.80;;
71475;SDS011;59286;59.274;17.974;2024-03-29T07:40:54;14.90;;;12.40;;
71475;SDS011;59286;59.274;17.974;2024-03-29T07:43:20;17.60;;;11.32;;
71475;SDS011;59286;59.274;17.974;2024-03-29T07:45:46;19.17;;;11.90;;
71475;SDS011;59286;59.274;17.974;2024-03-29T07:48:12;19.58;;;11.57;;
71475;SDS011;59286;59.274;17.974;2024-03-29T07:50:42;13.65;;;10.77;;
71475;SDS011;59286;59.274;17.974;2024-03-29T07:53:08;17.10;;;11.30;;
71475;SDS011;59286;59.274;17.974;2024-03-29T07:55:37;14.30;;;10.15;;
71475;SDS011;59286;59.274;17.974;2024-03-29T07:58:03;16.00;;;10.50;;
71475;SDS011;59286;59.274;17.974;2024-03-29T08:00:30;14.85;;;10.55;;
71475;SDS011;59286;59.274;17.974;2024-03-29T08:02:56;15.75;;;10.70;;
71475;SDS011;59286;59.274;17.974;2024-03-29T08:05:22;16.85;;;10.10;;
71475;SDS011;59286;59.274;17.974;2024-03-29T08:07:47;15.90;;;9.50;;
71475;SDS011;59286;59.274;17.974;2024-03-29T08:10:12;16.33;;;10.35;;
71475;SDS011;59286;59.274;17.974;2024-03-29T08:12:38;12.52;;;8.75;;
71475;SDS011;59286;59.274;17.974;2024-03-29T08:15:04;14.15;;;8.45;;
71475;SDS011;59286;59.274;17.974;2024-03-29T08:17:29;12.18;;;8.57;;
71475;SDS011;59286;59.274;17.974;2024-03-29T08:19:55;11.43;;;8.63;;
71475;SDS011;59286;59.274;17.974;2024-03-29T08:22:20;10.40;;;7.90;;
71475;SDS011;59286;59.274;17.974;2024-03-29T08:24:45;12.07;;;7.97;;
71475;SDS011;59286;59.274;17.974;2024-03-29T08:27:11;10.45;;;7.97;;
71475;SDS011;59286;59.274;17.974;2024-03-29T08:29:36;10.80;;;8.05;;
71475;SDS011;59286;59.274;17.974;2024-03-29T08:32:02;13.55;;;8.38;;
71475;SDS011;59286;59.274;17.974;2024-03-29T08:34:28;11.00;;;7.85;;
71475;SDS011;59286;59.274;17.974;2024-03-29T08:36:59;15.68;;;8.82;;
71475;SDS011;59286;59.274;17.974;2024-03-29T08:39:26;14.05;;;8.45;;
71475;SDS011;59286;59.274;17.974;2024-03-29T08:41:51;14.07;;;8.98;;
71475;SDS011;59286;59.274;17.974;2024-03-29T08:44:16;13.13;;;8.80;;
71475;SDS011;59286;59.274;17.974;2024-03-29T08:46:42;15.48;;;9.13;;
71475;SDS011;59286;59.274;17.974;2024-03-29T08:49:07;11.65;;;8.55;;
71475;SDS011;59286;59.274;17.974;2024-03-29T08:51:33;12.90;;;9.05;;
71475;SDS011;59286;59.274;17.974;2024-03-29T08:53:58;15.63;;;9.32;;
71475;SDS011;59286;59.274;17.974;2024-03-29T08:56:23;12.77;;;9.23;;
71475;SDS011;59286;59.274;17.974;2024-03-29T08:58:49;10.88;;;8.13;;
71475;SDS011;59286;59.274;17.974;2024-03-29T09:01:14;14.32;;;8.95;;
71475;SDS011;59286;59.274;17.974;2024-03-29T09:03:40;12.43;;;8.20;;
71475;SDS011;59286;59.274;17.974;2024-03-29T09:06:05;10.07;;;7.63;;
71475;SDS011;59286;59.274;17.974;2024-03-29T09:08:31;10.32;;;7.38;;
71475;SDS011;59286;59.274;17.974;2024-03-29T09:10:56;9.80;;;6.97;;
71475;SDS011;59286;59.274;17.974;2024-03-29T09:13:21;8.77;;;6.95;;
71475;SDS011;59286;59.274;17.974;2024-03-29T09:15:46;7.50;;;6.68;;
71475;SDS011;59286;59.274;17.974;2024-03-29T09:18:12;9.55;;;6.40;;
71475;SDS011;59286;59.274;17.974;2024-03-29T09:20:58;8.45;;;6.45;;
71475;SDS011;59286;59.274;17.974;2024-03-29T09:23:25;6.72;;;5.93;;
71475;SDS011;59286;59.274;17.974;2024-03-29T09:25:52;7.20;;;5.35;;
71475;SDS011;59286;59.274;17.974;2024-03-29T09:28:17;7.63;;;5.32;;
71475;SDS011;59286;59.274;17.974;2024-03-29T09:30:42;6.28;;;5.40;;
71475;SDS011;59286;59.274;17.974;2024-03-29T09:33:08;9.57;;;5.85;;
71475;SDS011;59286;59.274;17.974;2024-03-29T09:35:35;7.38;;;5.18;;
71475;SDS011;59286;59.274;17.974;2024-03-29T09:38:01;8.75;;;5.70;;
71475;SDS011;59286;59.274;17.974;2024-03-29T09:40:28;7.95;;;5.50;;
71475;SDS011;59286;59.274;17.974;2024-03-29T09:42:54;6.10;;;5.25;;
71475;SDS011;59286;59.274;17.974;2024-03-29T09:45:27;9.65;;;5.40;;
71475;SDS011;59286;59.274;17.974;2024-03-29T09:47:57;7.72;;;5.20;;
71475;SDS011;59286;59.274;17.974;2024-03-29T09:50:25;6.30;;;4.93;;
71475;SDS011;59286;59.274;17.974;2024-03-29T09:52:50;10.63;;;5.72;;
71475;SDS011;59286;59.274;17.974;2024-03-29T09:55:18;7.85;;;5.68;;
71475;SDS011;59286;59.274;17.974;2024-03-29T09:57:45;8.68;;;5.38;;
71475;SDS011;59286;59.274;17.974;2024-03-29T10:00:10;8.63;;;5.88;;
71475;SDS011;59286;59.274;17.974;2024-03-29T10:02:36;7.95;;;5.53;;
71475;SDS011;59286;59.274;17.974;2024-03-29T10:05:02;5.55;;;4.88;;
71475;SDS011;59286;59.274;17.974;2024-03-29T10:07:32;7.80;;;5.28;;
71475;SDS011;59286;59.274;17.974;2024-03-29T10:09:59;6.05;;;5.45;;
71475;SDS011;59286;59.274;17.974;2024-03-29T10:12:27;8.57;;;5.40;;
71475;SDS011;59286;59.274;17.974;2024-03-29T10:14:52;8.52;;;5.32;;
71475;SDS011;59286;59.274;17.974;2024-03-29T10:17:20;7.47;;;4.80;;
71475;SDS011;59286;59.274;17.974;2024-03-29T10:19:45;7.05;;;5.15;;
71475;SDS011;59286;59.274;17.974;2024-03-29T10:22:12;6.97;;;5.50;;
71475;SDS011;59286;59.274;17.974;2024-03-29T10:24:37;7.38;;;4.50;;
71475;SDS011;59286;59.274;17.974;2024-03-29T10:27:03;7.30;;;4.82;;
71475;SDS011;59286;59.274;17.974;2024-03-29T10:29:29;5.88;;;5.03;;
71475;SDS011;59286;59.274;17.974;2024-03-29T10:31:57;6.70;;;5.15;;
71475;SDS011;59286;59.274;17.974;2024-03-29T10:34:26;6.70;;;4.82;;
71475;SDS011;59286;59.274;17.974;2024-03-29T10:36:51;7.28;;;5.20;;
71475;SDS011;59286;59.274;17.974;2024-03-29T10:39:17;9.30;;;5.20;;
71475;SDS011;59286;59.274;17.974;2024-03-29T10:41:44;7.20;;;5.28;;
71475;SDS011;59286;59.274;17.974;2024-03-29T10:44:12;7.75;;;5.47;;
71475;SDS011;59286;59.274;17.974;2024-03-29T10:46:39;7.35;;;5.30;;
71475;SDS011;59286;59.274;17.974;2024-03-29T10:49:06;6.00;;;5.15;;
71475;SDS011;59286;59.274;17.974;2024-03-29T10:51:35;9.43;;;5.05;;
71475;SDS011;59286;59.274;17.974;2024-03-29T10:54:09;14.32;;;7.10;;
71475;SDS011;59286;59.274;17.974;2024-03-29T10:56:35;7.22;;;5.68;;
71475;SDS011;59286;59.274;17.974;2024-03-29T10:59:06;7.85;;;5.75;;
71475;SDS011;59286;59.274;17.974;2024-03-29T11:01:39;9.50;;;6.50;;
71475;SDS011;59286;59.274;17.974;2024-03-29T11:04:12;7.80;;;5.35;;
71475;SDS011;59286;59.274;17.974;2024-03-29T11:06:42;13.80;;;5.07;;
71475;SDS011;59286;59.274;17.974;2024-03-29T11:09:09;6.28;;;4.72;;
71475;SDS011;59286;59.274;17.974;2024-03-29T11:11:38;7.70;;;4.60;;
71475;SDS011;59286;59.274;17.974;2024-03-29T11:14:10;5.70;;;4.45;;
71475;SDS011;59286;59.274;17.974;2024-03-29T11:16:41;5.60;;;4.22;;
71475;SDS011;59286;59.274;17.974;2024-03-29T11:19:12;6.40;;;4.65;;
71475;SDS011;59286;59.274;17.974;2024-03-29T11:21:39;8.45;;;4.47;;
71475;SDS011;59286;59.274;17.974;2024-03-29T11:24:07;7.18;;;4.65;;
71475;SDS011;59286;59.274;17.974;2024-03-29T11:26:34;6.15;;;4.32;;
71475;SDS011;59286;59.274;17.974;2024-03-29T11:29:00;4.97;;;4.18;;
71475;SDS011;59286;59.274;17.974;2024-03-29T11:31:25;5.25;;;3.70;;
71475;SDS011;59286;59.274;17.974;2024-03-29T11:33:51;5.00;;;3.40;;
71475;SDS011;59286;59.274;17.974;2024-03-29T11:36:20;5.05;;;3.80;;
71475;SDS011;59286;59.274;17.974;2024-03-29T11:38:53;5.97;;;3.70;;
71475;SDS011;59286;59.274;17.974;2024-03-29T11:41:21;6.68;;;3.63;;
71475;SDS011;59286;59.274;17.974;2024-03-29T11:43:48;8.70;;;3.80;;
71475;SDS011;59286;59.274;17.974;2024-03-29T11:46:15;8.32;;;3.35;;
71475;SDS011;59286;59.274;17.974;2024-03-29T11:48:41;9.32;;;3.28;;
71475;SDS011;59286;59.274;17.974;2024-03-29T11:51:07;8.13;;;3.28;;
71475;SDS011;59286;59.274;17.974;2024-03-29T11:53:36;6.25;;;2.75;;
71475;SDS011;59286;59.274;17.974;2024-03-29T11:56:02;4.72;;;2.97;;
71475;SDS011;59286;59.274;17.974;2024-03-29T11:58:29;6.32;;;2.88;;
71475;SDS011;59286;59.274;17.974;2024-03-29T12:00:57;5.07;;;2.72;;
71475;SDS011;59286;59.274;17.974;2024-03-29T12:03:32;4.65;;;2.30;;
71475;SDS011;59286;59.274;17.974;2024-03-29T12:05:58;2.85;;;2.00;;
71475;SDS011;59286;59.274;17.974;2024-03-29T12:08:28;4.05;;;2.10;;
71475;SDS011;59286;59.274;17.974;2024-03-29T12:10:55;8.02;;;2.28;;
71475;SDS011;59286;59.274;17.974;2024-03-29T12:13:20;4.45;;;1.70;;
71475;SDS011;59286;59.274;17.974;2024-03-29T12:15:46;3.15;;;1.67;;
71475;SDS011;59286;59.274;17.974;2024-03-29T12:18:11;9.40;;;2.25;;
71475;SDS011;59286;59.274;17.974;2024-03-29T12:20:37;4.82;;;1.60;;
71475;SDS011;59286;59.274;17.974;2024-03-29T12:23:04;2.63;;;1.38;;
71475;SDS011;59286;59.274;17.974;2024-03-29T12:25:31;2.15;;;1.80;;
71475;SDS011;59286;59.274;17.974;2024-03-29T12:27:58;2.35;;;1.45;;
71475;SDS011;59286;59.274;17.974;2024-03-29T12:30:24;4.47;;;1.98;;
71475;SDS011;59286;59.274;17.974;2024-03-29T12:33:03;2.30;;;1.60;;
71475;SDS011;59286;59.274;17.974;2024-03-29T12:35:31;3.22;;;1.60;;
71475;SDS011;59286;59.274;17.974;2024-03-29T12:37:59;6.88;;;2.03;;
71475;SDS011;59286;59.274;17.974;2024-03-29T12:40:25;3.40;;;1.48;;
71475;SDS011;59286;59.274;17.974;2024-03-29T12:42:53;3.20;;;1.30;;
71475;SDS011;59286;59.274;17.974;2024-03-29T12:45:18;2.15;;;1.30;;
71475;SDS011;59286;59.274;17.974;2024-03-29T12:47:45;2.58;;;1.42;;
71475;SDS011;59286;59.274;17.974;2024-03-29T12:50:30;3.00;;;1.23;;
71475;SDS011;59286;59.274;17.974;2024-03-29T12:52:58;5.30;;;1.38;;
71475;SDS011;59286;59.274;17.974;2024-03-29T12:55:26;3.42;;;1.30;;
71475;SDS011;59286;59.274;17.974;2024-03-29T12:57:56;2.50;;;1.08;;
71475;SDS011;59286;59.274;17.974;2024-03-29T13:00:25;4.13;;;1.23;;
71475;SDS011;59286;59.274;17.974;2024-03-29T13:02:51;2.78;;;1.30;;
71475;SDS011;59286;59.274;17.974;2024-03-29T13:05:16;2.53;;;1.13;;
71475;SDS011;59286;59.274;17.974;2024-03-29T13:07:41;3.63;;;1.30;;
71475;SDS011;59286;59.274;17.974;2024-03-29T13:10:07;3.10;;;1.10;;
71475;SDS011;59286;59.274;17.974;2024-03-29T13:12:41;6.07;;;1.17;;
71475;SDS011;59286;59.274;17.974;2024-03-29T13:15:15;4.13;;;1.40;;
71475;SDS011;59286;59.274;17.974;2024-03-29T13:17:41;2.30;;;1.10;;
71475;SDS011;59286;59.274;17.974;2024-03-29T13:20:06;2.53;;;0.98;;
71475;SDS011;59286;59.274;17.974;2024-03-29T13:22:31;1.83;;;0.90;;
71475;SDS011;59286;59.274;17.974;2024-03-29T13:24:57;3.28;;;1.30;;
71475;SDS011;59286;59.274;17.974;2024-03-29T13:27:22;4.50;;;1.10;;
71475;SDS011;59286;59.274;17.974;2024-03-29T13:29:47;2.38;;;1.00;;
71475;SDS011;59286;59.274;17.974;2024-03-29T13:32:14;5.32;;;1.10;;
71475;SDS011;59286;59.274;17.974;2024-03-29T13:34:39;3.50;;;1.10;;
71475;SDS011;59286;59.274;17.974;2024-03-29T13:37:04;3.15;;;1.20;;
71475;SDS011;59286;59.274;17.974;2024-03-29T13:39:30;2.05;;;0.88;;
71475;SDS011;59286;59.274;17.974;2024-03-29T13:41:55;3.88;;;1.20;;
71475;SDS011;59286;59.274;17.974;2024-03-29T13:44:20;2.80;;;0.93;;
71475;SDS011;59286;59.274;17.974;2024-03-29T13:46:45;3.33;;;1.33;;
71475;SDS011;59286;59.274;17.974;2024-03-29T13:49:11;3.60;;;1.30;;
71475;SDS011;59286;59.274;17.974;2024-03-29T13:51:38;4.97;;;0.95;;
71475;SDS011;59286;59.274;17.974;2024-03-29T13:54:03;3.55;;;1.05;;
71475;SDS011;59286;59.274;17.974;2024-03-29T13:56:28;4.38;;;1.13;;
71475;SDS011;59286;59.274;17.974;2024-03-29T13:58:54;4.13;;;1.13;;
71475;SDS011;59286;59.274;17.974;2024-03-29T14:01:19;5.68;;;1.40;;
71475;SDS011;59286;59.274;17.974;2024-03-29T14:03:44;4.13;;;1.00;;
71475;SDS011;59286;59.274;17.974;2024-03-29T14:06:10;3.83;;;0.90;;
71475;SDS011;59286;59.274;17.974;2024-03-29T14:08:36;7.03;;;1.30;;
71475;SDS011;59286;59.274;17.974;2024-03-29T14:11:01;4.88;;;1.38;;